sensor_id;sensor_type;location;lat;lon;timestamp;P1;durP1;ratioP1;P2;durP2;ratioP2
71888;SDS011;59762;49.998;14.858;2022-08-01T00:01:43;7.70;;;3.60;;
71888;SDS011;59762;49.998;14.858;2022-08-01T00:04:11;3.30;;;2.95;;
71888;SDS011;59762;49.998;14.858;2022-08-01T00:06:37;6.50;;;2.97;;
71888;SDS011;59762;49.998;14.858;2022-08-01T00:09:02;3.10;;;2.58;;
71888;SDS011;59762;49.998;14.858;2022-08-01T00:11:28;3.88;;;2.90;;
71888;SDS011;59762;49.998;14.858;2022-08-01T00:13:54;6.35;;;3.53;;
71888;SDS011;59762;49.998;14.858;2022-08-01T00:16:19;3.78;;;2.95;;
71888;SDS011;59762;49.998;14.858;2022-08-01T00:18:48;5.18;;;3.15;;
71888;SDS011;59762;49.998;14.858;2022-08-01T00:21:15;3.22;;;2.70;;
71888;SDS011;59762;49.998;14.858;2022-08-01T00:23:41;4.00;;;2.83;;
71888;SDS011;59762;49.998;14.858;2022-08-01T00:26:06;5.63;;;2.83;;
71888;SDS011;59762;49.998;14.858;2022-08-01T00:28:32;3.55;;;3.10;;
71888;SDS011;59762;49.998;14.858;2022-08-01T00:30:58;5.10;;;2.85;;
71888;SDS011;59762;49.998;14.858;2022-08-01T00:33:24;4.30;;;2.92;;
71888;SDS011;59762;49.998;14.858;2022-08-01T00:35:49;4.22;;;2.95;;
71888;SDS011;59762;49.998;14.858;2022-08-01T00:38:15;3.50;;;3.20;;
71888;SDS011;59762;49.998;14.858;2022-08-01T00:40:40;3.75;;;2.95;;
71888;SDS011;59762;49.998;14.858;2022-08-01T00:43:06;3.30;;;2.85;;
71888;SDS011;59762;49.998;14.858;2022-08-01T00:45:32;6.50;;;3.05;;
71888;SDS011;59762;49.998;14.858;2022-08-01T00:47:57;3.80;;;3.40;;
71888;SDS011;59762;49.998;14.858;2022-08-01T00:50:23;3.53;;;2.92;;
71888;SDS011;59762;49.998;14.858;2022-08-01T00:52:48;3.45;;;3.00;;
71888;SDS011;59762;49.998;14.858;2022-08-01T00:55:15;6.95;;;3.22;;
71888;SDS011;59762;49.998;14.858;2022-08-01T00:57:40;4.05;;;2.90;;
71888;SDS011;59762;49.998;14.858;2022-08-01T01:00:07;3.72;;;3.03;;
71888;SDS011;59762;49.998;14.858;2022-08-01T01:02:33;3.00;;;2.60;;
71888;SDS011;59762;49.998;14.858;2022-08-01T01:05:00;4.57;;;3.00;;
71888;SDS011;59762;49.998;14.858;2022-08-01T01:10:25;4.45;;;2.92;;
71888;SDS011;59762;49.998;14.858;2022-08-01T01:15:46;4.90;;;2.83;;
71888;SDS011;59762;49.998;14.858;2022-08-01T01:20:52;4.28;;;3.25;;
71888;SDS011;59762;49.998;14.858;2022-08-01T01:26:36;4.20;;;3.67;;
71888;SDS011;59762;49.998;14.858;2022-08-01T01:29:23;4.27;;;3.10;;
71888;SDS011;59762;49.998;14.858;2022-08-01T01:32:07;4.80;;;3.40;;
71888;SDS011;59762;49.998;14.858;2022-08-01T01:34:39;3.78;;;3.33;;
71888;SDS011;59762;49.998;14.858;2022-08-01T01:37:09;4.90;;;3.33;;
71888;SDS011;59762;49.998;14.858;2022-08-01T01:39:41;3.63;;;3.33;;
71888;SDS011;59762;49.998;14.858;2022-08-01T01:42:07;4.00;;;3.60;;
71888;SDS011;59762;49.998;14.858;2022-08-01T01:44:34;5.72;;;3.38;;
71888;SDS011;59762;49.998;14.858;2022-08-01T01:47:02;3.88;;;3.00;;
71888;SDS011;59762;49.998;14.858;2022-08-01T01:49:28;3.72;;;3.28;;
71888;SDS011;59762;49.998;14.858;2022-08-01T01:51:56;5.25;;;3.45;;
71888;SDS011;59762;49.998;14.858;2022-08-01T01:54:24;4.03;;;3.28;;
71888;SDS011;59762;49.998;14.858;2022-08-01T01:56:55;4.47;;;4.00;;
71888;SDS011;59762;49.998;14.858;2022-08-01T01:59:25;4.32;;;3.20;;
71888;SDS011;59762;49.998;14.858;2022-08-01T02:01:54;3.83;;;3.33;;
71888;SDS011;59762;49.998;14.858;2022-08-01T02:04:23;4.35;;;3.58;;
71888;SDS011;59762;49.998;14.858;2022-08-01T02:06:51;4.85;;;3.60;;
71888;SDS011;59762;49.998;14.858;2022-08-01T02:09:18;4.43;;;3.63;;
71888;SDS011;59762;49.998;14.858;2022-08-01T02:11:48;4.68;;;3.58;;
71888;SDS011;59762;49.998;14.858;2022-08-01T02:14:16;4.20;;;3.47;;
71888;SDS011;59762;49.998;14.858;2022-08-01T02:16:44;5.60;;;3.55;;
71888;SDS011;59762;49.998;14.858;2022-08-01T02:19:13;3.67;;;3.28;;
71888;SDS011;59762;49.998;14.858;2022-08-01T02:21:40;5.25;;;3.92;;
71888;SDS011;59762;49.998;14.858;2022-08-01T02:27:04;4.28;;;3.58;;
71888;SDS011;59762;49.998;14.858;2022-08-01T02:29:58;4.60;;;3.10;;
71888;SDS011;59762;49.998;14.858;2022-08-01T02:32:31;6.97;;;3.65;;
71888;SDS011;59762;49.998;14.858;2022-08-01T02:35:01;3.47;;;3.17;;
71888;SDS011;59762;49.998;14.858;2022-08-01T02:37:29;4.97;;;3.83;;
71888;SDS011;59762;49.998;14.858;2022-08-01T02:39:58;5.50;;;3.70;;
71888;SDS011;59762;49.998;14.858;2022-08-01T02:42:25;6.07;;;4.30;;
71888;SDS011;59762;49.998;14.858;2022-08-01T02:44:53;4.20;;;3.80;;
71888;SDS011;59762;49.998;14.858;2022-08-01T02:47:20;4.38;;;3.45;;
71888;SDS011;59762;49.998;14.858;2022-08-01T02:49:48;4.53;;;3.70;;
71888;SDS011;59762;49.998;14.858;2022-08-01T02:52:16;4.30;;;3.90;;
71888;SDS011;59762;49.998;14.858;2022-08-01T02:54:47;4.72;;;3.72;;
71888;SDS011;59762;49.998;14.858;2022-08-01T02:57:16;5.53;;;4.35;;
71888;SDS011;59762;49.998;14.858;2022-08-01T02:59:44;4.43;;;3.85;;
71888;SDS011;59762;49.998;14.858;2022-08-01T03:02:11;6.65;;;3.72;;
71888;SDS011;59762;49.998;14.858;2022-08-01T03:04:39;4.70;;;3.90;;
71888;SDS011;59762;49.998;14.858;2022-08-01T03:07:07;6.88;;;4.25;;
71888;SDS011;59762;49.998;14.858;2022-08-01T03:09:36;4.25;;;3.78;;
71888;SDS011;59762;49.998;14.858;2022-08-01T03:12:05;4.18;;;3.45;;
71888;SDS011;59762;49.998;14.858;2022-08-01T03:14:35;4.63;;;4.05;;
71888;SDS011;59762;49.998;14.858;2022-08-01T03:17:03;5.28;;;4.78;;
71888;SDS011;59762;49.998;14.858;2022-08-01T03:19:30;9.60;;;4.20;;
71888;SDS011;59762;49.998;14.858;2022-08-01T03:21:57;6.60;;;4.15;;
71888;SDS011;59762;49.998;14.858;2022-08-01T03:24:25;5.20;;;3.85;;
71888;SDS011;59762;49.998;14.858;2022-08-01T03:26:52;6.70;;;4.68;;
71888;SDS011;59762;49.998;14.858;2022-08-01T03:29:22;4.88;;;4.20;;
71888;SDS011;59762;49.998;14.858;2022-08-01T03:31:50;4.47;;;3.80;;
71888;SDS011;59762;49.998;14.858;2022-08-01T03:34:17;5.70;;;4.45;;
71888;SDS011;59762;49.998;14.858;2022-08-01T03:40:13;5.00;;;3.83;;
71888;SDS011;59762;49.998;14.858;2022-08-01T03:42:40;4.75;;;3.72;;
71888;SDS011;59762;49.998;14.858;2022-08-01T03:45:10;5.78;;;4.18;;
71888;SDS011;59762;49.998;14.858;2022-08-01T03:47:42;5.22;;;3.83;;
71888;SDS011;59762;49.998;14.858;2022-08-01T03:50:09;6.20;;;3.88;;
71888;SDS011;59762;49.998;14.858;2022-08-01T03:52:37;4.60;;;3.83;;
71888;SDS011;59762;49.998;14.858;2022-08-01T03:55:06;3.72;;;3.35;;
71888;SDS011;59762;49.998;14.858;2022-08-01T03:57:33;8.55;;;4.30;;
71888;SDS011;59762;49.998;14.858;2022-08-01T03:59:59;4.40;;;3.67;;
71888;SDS011;59762;49.998;14.858;2022-08-01T04:02:26;5.60;;;3.55;;
71888;SDS011;59762;49.998;14.858;2022-08-01T04:04:52;4.18;;;3.35;;
71888;SDS011;59762;49.998;14.858;2022-08-01T04:07:22;3.75;;;3.45;;
71888;SDS011;59762;49.998;14.858;2022-08-01T04:09:50;4.55;;;3.60;;
71888;SDS011;59762;49.998;14.858;2022-08-01T04:12:15;7.88;;;3.38;;
71888;SDS011;59762;49.998;14.858;2022-08-01T04:14:41;4.65;;;3.72;;
71888;SDS011;59762;49.998;14.858;2022-08-01T04:17:07;4.00;;;3.30;;
71888;SDS011;59762;49.998;14.858;2022-08-01T04:19:32;3.33;;;3.03;;
71888;SDS011;59762;49.998;14.858;2022-08-01T04:21:58;3.72;;;3.10;;
71888;SDS011;59762;49.998;14.858;2022-08-01T04:24:23;4.65;;;3.25;;
71888;SDS011;59762;49.998;14.858;2022-08-01T04:26:52;3.72;;;3.33;;
71888;SDS011;59762;49.998;14.858;2022-08-01T04:29:19;5.00;;;3.55;;
71888;SDS011;59762;49.998;14.858;2022-08-01T04:31:48;4.32;;;3.17;;
71888;SDS011;59762;49.998;14.858;2022-08-01T04:34:16;4.55;;;3.50;;
71888;SDS011;59762;49.998;14.858;2022-08-01T04:36:45;5.88;;;3.45;;
71888;SDS011;59762;49.998;14.858;2022-08-01T04:39:12;5.70;;;3.67;;
71888;SDS011;59762;49.998;14.858;2022-08-01T04:41:40;4.53;;;4.03;;
71888;SDS011;59762;49.998;14.858;2022-08-01T04:44:07;5.30;;;3.55;;
71888;SDS011;59762;49.998;14.858;2022-08-01T04:46:33;4.15;;;3.28;;
71888;SDS011;59762;49.998;14.858;2022-08-01T04:48:59;5.43;;;3.63;;
71888;SDS011;59762;49.998;14.858;2022-08-01T04:51:26;3.35;;;2.90;;
71888;SDS011;59762;49.998;14.858;2022-08-01T04:53:52;3.65;;;3.22;;
71888;SDS011;59762;49.998;14.858;2022-08-01T04:56:18;3.38;;;3.08;;
71888;SDS011;59762;49.998;14.858;2022-08-01T04:58:45;5.05;;;3.28;;
71888;SDS011;59762;49.998;14.858;2022-08-01T05:01:12;5.55;;;3.83;;
71888;SDS011;59762;49.998;14.858;2022-08-01T05:03:38;4.13;;;3.35;;
71888;SDS011;59762;49.998;14.858;2022-08-01T05:06:03;3.50;;;3.00;;
71888;SDS011;59762;49.998;14.858;2022-08-01T05:08:29;7.85;;;3.00;;
71888;SDS011;59762;49.998;14.858;2022-08-01T05:10:55;7.65;;;3.08;;
71888;SDS011;59762;49.998;14.858;2022-08-01T05:13:21;3.63;;;2.90;;
71888;SDS011;59762;49.998;14.858;2022-08-01T05:15:46;4.95;;;3.00;;
71888;SDS011;59762;49.998;14.858;2022-08-01T05:18:12;4.35;;;3.70;;
71888;SDS011;59762;49.998;14.858;2022-08-01T05:20:38;5.47;;;3.40;;
71888;SDS011;59762;49.998;14.858;2022-08-01T05:23:04;5.80;;;4.15;;
71888;SDS011;59762;49.998;14.858;2022-08-01T05:25:30;7.07;;;4.35;;
71888;SDS011;59762;49.998;14.858;2022-08-01T05:27:55;7.45;;;4.55;;
71888;SDS011;59762;49.998;14.858;2022-08-01T05:30:21;4.95;;;4.30;;
71888;SDS011;59762;49.998;14.858;2022-08-01T05:32:46;4.35;;;3.78;;
71888;SDS011;59762;49.998;14.858;2022-08-01T05:35:12;4.50;;;4.10;;
71888;SDS011;59762;49.998;14.858;2022-08-01T05:37:37;6.43;;;4.10;;
71888;SDS011;59762;49.998;14.858;2022-08-01T05:40:04;8.48;;;3.95;;
71888;SDS011;59762;49.998;14.858;2022-08-01T05:42:30;4.38;;;3.78;;
71888;SDS011;59762;49.998;14.858;2022-08-01T05:44:56;3.90;;;3.50;;
71888;SDS011;59762;49.998;14.858;2022-08-01T05:47:22;4.40;;;3.90;;
71888;SDS011;59762;49.998;14.858;2022-08-01T05:49:47;4.45;;;3.65;;
71888;SDS011;59762;49.998;14.858;2022-08-01T05:52:13;5.20;;;3.63;;
71888;SDS011;59762;49.998;14.858;2022-08-01T05:54:39;3.60;;;3.30;;
71888;SDS011;59762;49.998;14.858;2022-08-01T05:57:04;4.07;;;3.13;;
71888;SDS011;59762;49.998;14.858;2022-08-01T05:59:31;3.10;;;2.80;;
71888;SDS011;59762;49.998;14.858;2022-08-01T06:01:56;2.90;;;2.58;;
71888;SDS011;59762;49.998;14.858;2022-08-01T06:04:22;4.80;;;3.20;;
71888;SDS011;59762;49.998;14.858;2022-08-01T06:06:48;3.80;;;2.42;;
71888;SDS011;59762;49.998;14.858;2022-08-01T06:09:14;3.95;;;3.05;;
71888;SDS011;59762;49.998;14.858;2022-08-01T06:11:40;3.13;;;2.83;;
71888;SDS011;59762;49.998;14.858;2022-08-01T06:14:05;4.00;;;3.03;;
71888;SDS011;59762;49.998;14.858;2022-08-01T06:16:31;3.38;;;3.08;;
71888;SDS011;59762;49.998;14.858;2022-08-01T06:18:57;3.40;;;2.80;;
71888;SDS011;59762;49.998;14.858;2022-08-01T06:21:23;3.92;;;3.42;;
71888;SDS011;59762;49.998;14.858;2022-08-01T06:23:48;4.63;;;3.97;;
71888;SDS011;59762;49.998;14.858;2022-08-01T06:26:16;6.28;;;3.67;;
71888;SDS011;59762;49.998;14.858;2022-08-01T06:28:43;4.25;;;3.85;;
71888;SDS011;59762;49.998;14.858;2022-08-01T06:31:08;3.97;;;3.50;;
71888;SDS011;59762;49.998;14.858;2022-08-01T06:33:36;3.17;;;2.80;;
71888;SDS011;59762;49.998;14.858;2022-08-01T06:36:02;4.45;;;2.85;;
71888;SDS011;59762;49.998;14.858;2022-08-01T06:38:28;5.55;;;3.05;;
71888;SDS011;59762;49.998;14.858;2022-08-01T06:40:54;2.88;;;2.60;;
71888;SDS011;59762;49.998;14.858;2022-08-01T06:43:19;3.47;;;2.83;;
71888;SDS011;59762;49.998;14.858;2022-08-01T06:45:46;3.47;;;2.95;;
71888;SDS011;59762;49.998;14.858;2022-08-01T06:48:11;3.35;;;3.03;;
71888;SDS011;59762;49.998;14.858;2022-08-01T06:50:37;3.65;;;2.92;;
71888;SDS011;59762;49.998;14.858;2022-08-01T06:53:03;7.32;;;2.50;;
71888;SDS011;59762;49.998;14.858;2022-08-01T06:55:29;3.22;;;2.60;;
71888;SDS011;59762;49.998;14.858;2022-08-01T06:57:55;7.70;;;3.40;;
71888;SDS011;59762;49.998;14.858;2022-08-01T07:00:21;3.42;;;2.65;;
71888;SDS011;59762;49.998;14.858;2022-08-01T07:02:48;5.57;;;2.50;;
71888;SDS011;59762;49.998;14.858;2022-08-01T07:05:15;4.28;;;2.88;;
71888;SDS011;59762;49.998;14.858;2022-08-01T07:07:40;3.15;;;2.70;;
71888;SDS011;59762;49.998;14.858;2022-08-01T07:10:06;3.78;;;2.63;;
71888;SDS011;59762;49.998;14.858;2022-08-01T07:12:34;4.53;;;2.67;;
71888;SDS011;59762;49.998;14.858;2022-08-01T07:15:02;3.10;;;2.70;;
71888;SDS011;59762;49.998;14.858;2022-08-01T07:17:29;4.25;;;2.55;;
71888;SDS011;59762;49.998;14.858;2022-08-01T07:19:55;3.45;;;2.75;;
71888;SDS011;59762;49.998;14.858;2022-08-01T07:22:20;3.15;;;2.40;;
71888;SDS011;59762;49.998;14.858;2022-08-01T07:24:46;3.10;;;2.80;;
71888;SDS011;59762;49.998;14.858;2022-08-01T07:27:12;5.40;;;3.30;;
71888;SDS011;59762;49.998;14.858;2022-08-01T07:29:37;3.60;;;2.88;;
71888;SDS011;59762;49.998;14.858;2022-08-01T07:32:04;4.97;;;2.97;;
71888;SDS011;59762;49.998;14.858;2022-08-01T07:34:33;5.45;;;2.60;;
71888;SDS011;59762;49.998;14.858;2022-08-01T07:36:58;3.80;;;2.65;;
71888;SDS011;59762;49.998;14.858;2022-08-01T07:39:24;4.20;;;2.72;;
71888;SDS011;59762;49.998;14.858;2022-08-01T07:41:49;7.75;;;3.13;;
71888;SDS011;59762;49.998;14.858;2022-08-01T07:44:15;3.30;;;3.00;;
71888;SDS011;59762;49.998;14.858;2022-08-01T07:46:40;4.25;;;3.42;;
71888;SDS011;59762;49.998;14.858;2022-08-01T07:49:07;2.88;;;2.65;;
71888;SDS011;59762;49.998;14.858;2022-08-01T07:51:32;5.32;;;3.22;;
71888;SDS011;59762;49.998;14.858;2022-08-01T07:53:58;4.68;;;3.30;;
71888;SDS011;59762;49.998;14.858;2022-08-01T07:56:24;3.72;;;3.35;;
71888;SDS011;59762;49.998;14.858;2022-08-01T07:58:50;8.18;;;3.53;;
71888;SDS011;59762;49.998;14.858;2022-08-01T08:01:16;4.53;;;3.10;;
71888;SDS011;59762;49.998;14.858;2022-08-01T08:03:41;3.50;;;3.10;;
71888;SDS011;59762;49.998;14.858;2022-08-01T08:06:07;4.13;;;2.95;;
71888;SDS011;59762;49.998;14.858;2022-08-01T08:08:32;4.53;;;2.97;;
71888;SDS011;59762;49.998;14.858;2022-08-01T08:11:00;4.85;;;3.30;;
71888;SDS011;59762;49.998;14.858;2022-08-01T08:13:25;4.53;;;3.70;;
71888;SDS011;59762;49.998;14.858;2022-08-01T08:15:51;4.60;;;3.28;;
71888;SDS011;59762;49.998;14.858;2022-08-01T08:18:18;5.40;;;3.72;;
71888;SDS011;59762;49.998;14.858;2022-08-01T08:20:43;4.50;;;3.33;;
71888;SDS011;59762;49.998;14.858;2022-08-01T08:23:09;8.93;;;4.50;;
71888;SDS011;59762;49.998;14.858;2022-08-01T08:25:53;3.67;;;3.30;;
71888;SDS011;59762;49.998;14.858;2022-08-01T08:28:19;3.90;;;3.38;;
71888;SDS011;59762;49.998;14.858;2022-08-01T08:30:44;4.10;;;3.05;;
71888;SDS011;59762;49.998;14.858;2022-08-01T08:33:10;3.42;;;2.75;;
71888;SDS011;59762;49.998;14.858;2022-08-01T08:35:35;3.13;;;2.83;;
71888;SDS011;59762;49.998;14.858;2022-08-01T08:38:04;4.80;;;2.65;;
71888;SDS011;59762;49.998;14.858;2022-08-01T08:40:30;4.07;;;2.80;;
71888;SDS011;59762;49.998;14.858;2022-08-01T08:42:56;4.40;;;2.72;;
71888;SDS011;59762;49.998;14.858;2022-08-01T08:45:24;3.88;;;3.00;;
71888;SDS011;59762;49.998;14.858;2022-08-01T08:47:52;3.67;;;2.97;;
71888;SDS011;59762;49.998;14.858;2022-08-01T08:50:19;3.55;;;2.60;;
71888;SDS011;59762;49.998;14.858;2022-08-01T08:52:45;3.97;;;2.83;;
71888;SDS011;59762;49.998;14.858;2022-08-01T08:55:13;3.47;;;2.75;;
71888;SDS011;59762;49.998;14.858;2022-08-01T08:57:41;4.22;;;2.78;;
71888;SDS011;59762;49.998;14.858;2022-08-01T09:00:09;2.85;;;2.40;;
71888;SDS011;59762;49.998;14.858;2022-08-01T09:02:43;3.47;;;2.80;;
71888;SDS011;59762;49.998;14.858;2022-08-01T09:05:10;8.93;;;3.40;;
71888;SDS011;59762;49.998;14.858;2022-08-01T09:07:36;7.05;;;3.22;;
71888;SDS011;59762;49.998;14.858;2022-08-01T09:10:03;4.30;;;3.10;;
71888;SDS011;59762;49.998;14.858;2022-08-01T09:12:29;4.05;;;2.83;;
71888;SDS011;59762;49.998;14.858;2022-08-01T09:14:54;5.20;;;2.78;;
71888;SDS011;59762;49.998;14.858;2022-08-01T09:17:20;3.42;;;2.85;;
71888;SDS011;59762;49.998;14.858;2022-08-01T09:19:47;5.10;;;3.35;;
71888;SDS011;59762;49.998;14.858;2022-08-01T09:22:18;4.50;;;3.22;;
71888;SDS011;59762;49.998;14.858;2022-08-01T09:25:04;4.38;;;3.10;;
71888;SDS011;59762;49.998;14.858;2022-08-01T09:27:32;4.63;;;3.42;;
71888;SDS011;59762;49.998;14.858;2022-08-01T09:32:33;5.20;;;3.22;;
71888;SDS011;59762;49.998;14.858;2022-08-01T09:35:00;4.80;;;3.40;;
71888;SDS011;59762;49.998;14.858;2022-08-01T09:37:48;3.92;;;2.90;;
71888;SDS011;59762;49.998;14.858;2022-08-01T09:40:13;3.42;;;3.03;;
71888;SDS011;59762;49.998;14.858;2022-08-01T09:42:39;3.25;;;2.95;;
71888;SDS011;59762;49.998;14.858;2022-08-01T09:45:05;3.08;;;2.78;;
71888;SDS011;59762;49.998;14.858;2022-08-01T09:47:40;4.15;;;2.97;;
71888;SDS011;59762;49.998;14.858;2022-08-01T09:50:06;3.60;;;3.25;;
71888;SDS011;59762;49.998;14.858;2022-08-01T09:52:32;4.53;;;2.83;;
71888;SDS011;59762;49.998;14.858;2022-08-01T09:54:59;3.58;;;2.42;;
71888;SDS011;59762;49.998;14.858;2022-08-01T09:57:27;2.75;;;2.35;;
71888;SDS011;59762;49.998;14.858;2022-08-01T09:59:54;3.13;;;2.63;;
71888;SDS011;59762;49.998;14.858;2022-08-01T10:04:53;4.82;;;2.70;;
71888;SDS011;59762;49.998;14.858;2022-08-01T10:07:19;3.65;;;2.40;;
71888;SDS011;59762;49.998;14.858;2022-08-01T10:09:46;4.40;;;2.35;;
71888;SDS011;59762;49.998;14.858;2022-08-01T10:12:16;3.28;;;2.50;;
71888;SDS011;59762;49.998;14.858;2022-08-01T10:14:44;2.55;;;2.35;;
71888;SDS011;59762;49.998;14.858;2022-08-01T10:17:15;2.78;;;2.50;;
71888;SDS011;59762;49.998;14.858;2022-08-01T10:19:42;3.53;;;2.47;;
71888;SDS011;59762;49.998;14.858;2022-08-01T10:22:10;3.08;;;2.67;;
71888;SDS011;59762;49.998;14.858;2022-08-01T10:24:41;4.72;;;2.78;;
71888;SDS011;59762;49.998;14.858;2022-08-01T10:27:10;2.55;;;2.28;;
71888;SDS011;59762;49.998;14.858;2022-08-01T10:29:47;6.80;;;2.85;;
71888;SDS011;59762;49.998;14.858;2022-08-01T10:32:17;3.67;;;3.00;;
71888;SDS011;59762;49.998;14.858;2022-08-01T10:38:30;4.78;;;2.50;;
71888;SDS011;59762;49.998;14.858;2022-08-01T10:40:56;4.53;;;3.10;;
71888;SDS011;59762;49.998;14.858;2022-08-01T10:43:24;2.72;;;2.35;;
71888;SDS011;59762;49.998;14.858;2022-08-01T10:45:50;3.90;;;2.60;;
71888;SDS011;59762;49.998;14.858;2022-08-01T10:50:48;3.03;;;2.10;;
71888;SDS011;59762;49.998;14.858;2022-08-01T10:53:23;2.40;;;2.20;;
71888;SDS011;59762;49.998;14.858;2022-08-01T11:01:36;2.28;;;2.00;;
71888;SDS011;59762;49.998;14.858;2022-08-01T11:03:44;3.05;;;1.88;;
71888;SDS011;59762;49.998;14.858;2022-08-01T11:06:25;2.17;;;1.50;;
71888;SDS011;59762;49.998;14.858;2022-08-01T11:09:42;1.60;;;1.50;;
71888;SDS011;59762;49.998;14.858;2022-08-01T11:12:03;1.83;;;1.38;;
71888;SDS011;59762;49.998;14.858;2022-08-01T11:17:36;1.60;;;1.35;;
71888;SDS011;59762;49.998;14.858;2022-08-01T11:20:19;1.40;;;1.20;;
71888;SDS011;59762;49.998;14.858;2022-08-01T11:25:25;1.20;;;1.10;;
71888;SDS011;59762;49.998;14.858;2022-08-01T11:30:39;0.90;;;0.75;;
71888;SDS011;59762;49.998;14.858;2022-08-01T11:33:15;1.27;;;0.90;;
71888;SDS011;59762;49.998;14.858;2022-08-01T11:41:14;1.10;;;1.00;;
71888;SDS011;59762;49.998;14.858;2022-08-01T11:52:25;2.75;;;0.70;;
71888;SDS011;59762;49.998;14.858;2022-08-01T11:54:54;1.15;;;0.75;;
71888;SDS011;59762;49.998;14.858;2022-08-01T11:57:38;2.10;;;1.00;;
71888;SDS011;59762;49.998;14.858;2022-08-01T12:00:11;1.10;;;1.00;;
71888;SDS011;59762;49.998;14.858;2022-08-01T12:02:42;2.35;;;1.20;;
71888;SDS011;59762;49.998;14.858;2022-08-01T12:05:09;1.88;;;1.30;;
71888;SDS011;59762;49.998;14.858;2022-08-01T12:07:40;1.10;;;1.00;;
71888;SDS011;59762;49.998;14.858;2022-08-01T12:10:09;1.30;;;1.20;;
71888;SDS011;59762;49.998;14.858;2022-08-01T12:12:37;1.23;;;1.13;;
71888;SDS011;59762;49.998;14.858;2022-08-01T12:15:11;1.40;;;1.30;;
71888;SDS011;59762;49.998;14.858;2022-08-01T12:17:41;1.50;;;1.20;;
71888;SDS011;59762;49.998;14.858;2022-08-01T12:20:09;1.52;;;1.40;;
71888;SDS011;59762;49.998;14.858;2022-08-01T12:22:36;1.50;;;1.30;;
71888;SDS011;59762;49.998;14.858;2022-08-01T12:27:32;1.60;;;1.30;;
71888;SDS011;59762;49.998;14.858;2022-08-01T12:29:59;1.10;;;1.00;;
71888;SDS011;59762;49.998;14.858;2022-08-01T12:32:26;1.30;;;1.00;;
71888;SDS011;59762;49.998;14.858;2022-08-01T12:34:57;2.67;;;1.05;;
71888;SDS011;59762;49.998;14.858;2022-08-01T12:37:26;2.55;;;1.23;;
71888;SDS011;59762;49.998;14.858;2022-08-01T12:39:52;1.13;;;1.10;;
71888;SDS011;59762;49.998;14.858;2022-08-01T12:42:18;1.30;;;1.20;;
71888;SDS011;59762;49.998;14.858;2022-08-01T12:44:45;1.48;;;1.10;;
71888;SDS011;59762;49.998;14.858;2022-08-01T12:47:12;1.45;;;1.10;;
71888;SDS011;59762;49.998;14.858;2022-08-01T12:49:40;1.33;;;1.15;;
71888;SDS011;59762;49.998;14.858;2022-08-01T12:52:08;1.92;;;1.20;;
71888;SDS011;59762;49.998;14.858;2022-08-01T12:54:59;1.25;;;1.15;;
71888;SDS011;59762;49.998;14.858;2022-08-01T12:57:29;1.20;;;1.10;;
71888;SDS011;59762;49.998;14.858;2022-08-01T13:00:12;1.52;;;1.30;;
71888;SDS011;59762;49.998;14.858;2022-08-01T13:02:40;1.50;;;1.40;;
71888;SDS011;59762;49.998;14.858;2022-08-01T13:05:06;1.55;;;1.45;;
71888;SDS011;59762;49.998;14.858;2022-08-01T13:07:52;1.90;;;1.75;;
71888;SDS011;59762;49.998;14.858;2022-08-01T13:10:28;1.75;;;1.50;;
71888;SDS011;59762;49.998;14.858;2022-08-01T13:12:56;1.70;;;1.55;;
71888;SDS011;59762;49.998;14.858;2022-08-01T13:15:25;1.60;;;1.50;;
71888;SDS011;59762;49.998;14.858;2022-08-01T13:17:59;1.25;;;1.15;;
71888;SDS011;59762;49.998;14.858;2022-08-01T13:20:33;1.48;;;1.33;;
71888;SDS011;59762;49.998;14.858;2022-08-01T13:25:55;3.05;;;1.30;;
71888;SDS011;59762;49.998;14.858;2022-08-01T13:30:54;1.38;;;1.10;;
71888;SDS011;59762;49.998;14.858;2022-08-01T13:33:25;1.20;;;1.10;;
71888;SDS011;59762;49.998;14.858;2022-08-01T13:35:53;1.58;;;1.10;;
71888;SDS011;59762;49.998;14.858;2022-08-01T13:38:20;1.90;;;1.13;;
71888;SDS011;59762;49.998;14.858;2022-08-01T13:41:06;2.35;;;1.20;;
71888;SDS011;59762;49.998;14.858;2022-08-01T13:43:32;2.85;;;1.10;;
71888;SDS011;59762;49.998;14.858;2022-08-01T13:45:58;1.10;;;1.00;;
71888;SDS011;59762;49.998;14.858;2022-08-01T13:48:24;1.50;;;1.20;;
71888;SDS011;59762;49.998;14.858;2022-08-01T13:50:49;1.10;;;1.00;;
71888;SDS011;59762;49.998;14.858;2022-08-01T13:53:15;0.88;;;0.80;;
71888;SDS011;59762;49.998;14.858;2022-08-01T13:55:42;1.80;;;0.80;;
71888;SDS011;59762;49.998;14.858;2022-08-01T13:58:08;0.88;;;0.80;;
71888;SDS011;59762;49.998;14.858;2022-08-01T14:00:34;0.85;;;0.70;;
71888;SDS011;59762;49.998;14.858;2022-08-01T14:02:59;1.23;;;0.90;;
71888;SDS011;59762;49.998;14.858;2022-08-01T14:05:25;0.95;;;0.80;;
71888;SDS011;59762;49.998;14.858;2022-08-01T14:07:51;0.98;;;0.85;;
71888;SDS011;59762;49.998;14.858;2022-08-01T14:10:16;0.95;;;0.85;;
71888;SDS011;59762;49.998;14.858;2022-08-01T14:12:42;1.08;;;0.70;;
71888;SDS011;59762;49.998;14.858;2022-08-01T14:15:08;0.88;;;0.73;;
71888;SDS011;59762;49.998;14.858;2022-08-01T14:17:34;1.40;;;0.80;;
71888;SDS011;59762;49.998;14.858;2022-08-01T14:20:00;0.82;;;0.77;;
71888;SDS011;59762;49.998;14.858;2022-08-01T14:22:27;1.80;;;0.80;;
71888;SDS011;59762;49.998;14.858;2022-08-01T14:24:52;0.60;;;0.60;;
71888;SDS011;59762;49.998;14.858;2022-08-01T14:27:18;1.00;;;0.50;;
71888;SDS011;59762;49.998;14.858;2022-08-01T14:29:44;0.80;;;0.73;;
71888;SDS011;59762;49.998;14.858;2022-08-01T14:32:11;0.88;;;0.77;;
71888;SDS011;59762;49.998;14.858;2022-08-01T14:34:37;1.60;;;0.70;;
71888;SDS011;59762;49.998;14.858;2022-08-01T14:37:03;1.58;;;0.80;;
71888;SDS011;59762;49.998;14.858;2022-08-01T14:39:28;1.58;;;0.90;;
71888;SDS011;59762;49.998;14.858;2022-08-01T14:41:54;0.80;;;0.80;;
71888;SDS011;59762;49.998;14.858;2022-08-01T14:44:19;2.28;;;0.80;;
71888;SDS011;59762;49.998;14.858;2022-08-01T14:46:45;1.20;;;1.00;;
71888;SDS011;59762;49.998;14.858;2022-08-01T14:49:13;1.08;;;0.90;;
71888;SDS011;59762;49.998;14.858;2022-08-01T14:51:39;1.63;;;1.10;;
71888;SDS011;59762;49.998;14.858;2022-08-01T14:54:05;1.45;;;1.08;;
71888;SDS011;59762;49.998;14.858;2022-08-01T14:56:31;2.22;;;1.30;;
71888;SDS011;59762;49.998;14.858;2022-08-01T14:58:56;2.42;;;1.30;;
71888;SDS011;59762;49.998;14.858;2022-08-01T15:01:22;1.30;;;1.05;;
71888;SDS011;59762;49.998;14.858;2022-08-01T15:03:48;1.20;;;1.10;;
71888;SDS011;59762;49.998;14.858;2022-08-01T15:06:15;1.00;;;0.90;;
71888;SDS011;59762;49.998;14.858;2022-08-01T15:08:40;1.10;;;1.00;;
71888;SDS011;59762;49.998;14.858;2022-08-01T15:11:06;2.33;;;0.98;;
71888;SDS011;59762;49.998;14.858;2022-08-01T15:13:33;1.20;;;1.10;;
71888;SDS011;59762;49.998;14.858;2022-08-01T15:15:59;1.17;;;1.05;;
71888;SDS011;59762;49.998;14.858;2022-08-01T15:18:25;1.38;;;1.27;;
71888;SDS011;59762;49.998;14.858;2022-08-01T15:20:50;1.50;;;0.98;;
71888;SDS011;59762;49.998;14.858;2022-08-01T15:23:16;1.20;;;1.10;;
71888;SDS011;59762;49.998;14.858;2022-08-01T15:25:42;0.98;;;0.85;;
71888;SDS011;59762;49.998;14.858;2022-08-01T15:28:08;1.25;;;0.98;;
71888;SDS011;59762;49.998;14.858;2022-08-01T15:30:34;1.27;;;1.10;;
71888;SDS011;59762;49.998;14.858;2022-08-01T15:33:00;2.75;;;1.30;;
71888;SDS011;59762;49.998;14.858;2022-08-01T15:35:26;1.58;;;1.30;;
71888;SDS011;59762;49.998;14.858;2022-08-01T15:37:51;2.20;;;1.10;;
71888;SDS011;59762;49.998;14.858;2022-08-01T15:40:17;1.60;;;1.15;;
71888;SDS011;59762;49.998;14.858;2022-08-01T15:42:42;2.90;;;1.20;;